Latest Weather Observations for Orange Airport

IDN60801

Issued at 11:32 am EST Wednesday 1 July 2015 (issued every 30 minutes, with the page automatically refreshed every 10 minutes)

About weather observations | Map of weather stations | Latest weather observations for NSW | Other Formats
Station Details ID: 063303 Name: ORANGE AIRPORT AWS Lat: -33.38 Lon: 149.13 Height: 944.65 m
Data from the previous 72 hours. | See also: Recent months at Orange Airport
Date/Time
EST
Temp
°C
App
Temp
°C
Dew
Point
Rel
Hum
%
Delta-T
°C
Wind Press
QNH
hPa
Press
MSL
hPa
Rain
since 9 am
mm
Dir
 
Spd
km/h
Gust
km/h
Spd
kts
Gust
kts
01/11:30am 5.5 1.2 0.9 72 1.9 SW 13 17 7 9 1025.7 1027.0 0.0
01/11:00am 5.2 1.4 1.7 78 1.5 S 11 15 6 8 1026.1 1027.4 0.0
01/10:30am 4.0 0.4 0.7 79 1.3 SSW 9 13 5 7 1026.2 1027.5 0.0
01/10:00am 3.5 -0.9 0.6 81 1.2 SSW 13 17 7 9 1026.2 1027.5 0.0
01/09:30am 3.0 -1.3 0.9 86 0.9 S 13 17 7 9 1026.1 1026.9 0.0
01/09:00am 2.3 -2.8 1.0 91 0.5 SSW 17 20 9 11 1026.2 1027.0 0.6
01/08:30am 1.0 -3.5 0.0 93 0.4 SW 13 17 7 9 1026.3 1027.1 0.6
01/08:00am 0.5 -3.3 -0.5 93 0.4 SW 9 11 5 6 1025.8 1026.7 0.6
01/07:40am 0.3 -4.3 -0.7 93 0.4 WSW 13 15 7 8 1025.8 1026.7 0.6
01/07:35am 0.2 -4.4 -0.8 93 0.4 WSW 13 15 7 8 1025.8 1026.7 0.6
01/07:30am 0.2 -4.7 -0.8 93 0.4 SW 15 15 8 8 1025.8 1026.7 0.6
01/07:00am 0.1 -4.9 -0.9 93 0.4 SW 15 15 8 8 1025.7 1026.6 0.6
01/06:30am 1.5 -3.3 0.5 93 0.4 SSW 15 19 8 10 1025.4 1026.2 0.6
01/06:00am 1.9 -2.4 0.9 93 0.4 SW 13 17 7 9 1025.2 1026.0 0.6
01/05:30am 2.3 -2.0 1.3 93 0.4 SW 13 15 7 8 1025.1 1025.9 0.6
01/05:00am 2.5 -1.0 1.5 93 0.4 SW 9 11 5 6 1025.1 1025.9 0.6
01/04:39am 2.8 -0.2 1.8 93 0.4 SSW 7 11 4 6 1025.0 1025.8 0.6
01/04:30am 2.7 -0.3 1.7 93 0.4 SSW 7 9 4 5 1025.1 1025.9 0.6
01/04:00am 2.7 -0.7 1.7 93 0.4 SSW 9 13 5 7 1025.1 1025.9 0.6
01/03:54am 2.8 -0.6 1.8 93 0.4 SSW 9 11 5 6 1025.4 1026.2 0.6
01/03:30am 3.0 -0.4 2.0 93 0.4 SSW 9 13 5 7 1025.4 1026.2 0.6
01/03:00am 3.1 -0.6 2.1 93 0.4 SSW 11 15 6 8 1025.5 1026.4 0.4
01/02:30am 3.1 -0.6 2.1 93 0.4 SSW 11 15 6 8 1025.6 1026.5 0.4
01/02:01am 3.2 -0.5 2.2 93 0.4 S 11 15 6 8 1025.6 1026.5 0.4
01/02:00am 3.2 -0.5 2.2 93 0.4 S 11 15 6 8 1025.6 1026.5 0.4
01/01:30am 3.3 0.0 2.3 93 0.4 SSW 9 11 5 6 1025.9 1026.8 0.4
01/01:21am 3.2 -0.5 2.2 93 0.4 SSW 11 15 6 8 1025.9 1026.8 0.4
01/01:00am 3.5 -0.2 2.5 93 0.4 SSW 11 13 6 7 1025.9 1026.8 0.2
01/12:30am 3.7 -0.3 2.7 93 0.4 SSW 13 17 7 9 1026.3 1027.1 0.0
01/12:00am 4.1 0.9 3.1 93 0.4 SSW 9 11 5 6 1026.3 1027.1 0.0
 
Date/Time
EST
Temp
°C
App
Temp
°C
Dew
Point
Rel
Hum
%
Delta-T
°C
Wind Press
QNH
hPa
Press
MSL
hPa
Rain
since 9 am
mm
Dir
 
Spd
km/h
Gust
km/h
Spd
kts
Gust
kts
30/11:30pm 4.2 -0.5 3.2 93 0.4 SW 17 20 9 11 1026.6 1027.5 0.0
30/11:00pm 4.3 0.0 3.3 93 0.4 SW 15 20 8 11 1026.7 1027.6 0.0
30/10:30pm 4.3 -0.4 3.3 93 0.4 SW 17 20 9 11 1026.9 1027.8 0.0
30/10:22pm 4.3 -0.4 3.3 93 0.4 SW 17 20 9 11 1026.9 1027.8 0.0
30/10:00pm 4.9 1.1 3.9 93 0.4 SW 13 15 7 8 1026.9 1027.8 0.0
30/09:30pm 5.1 2.1 3.9 92 0.5 SW 9 11 5 6 1026.9 1027.8 0.0
30/09:00pm 5.2 1.8 4.0 92 0.5 SW 11 13 6 7 1027.0 1027.9 0.0
30/08:30pm 5.0 2.0 4.0 93 0.4 SSW 9 11 5 6 1027.0 1027.9 0.0
30/08:00pm 4.1 2.6 3.1 93 0.4 CALM 0 0 0 0 1027.3 1028.1 0.0
30/07:54pm 4.2 2.7 3.2 93 0.4 CALM 0 0 0 0 1027.1 1028.0 0.0
30/07:41pm 4.2 1.6 3.2 93 0.4 SW 6 7 3 4 1027.0 1027.9 0.0
30/07:30pm 4.4 1.3 3.4 93 0.4 SW 9 11 5 6 1027.0 1027.9 0.0
30/07:00pm 4.0 0.8 3.0 93 0.4 S 9 11 5 6 1027.0 1027.9 0.0
30/06:30pm 4.1 0.4 2.6 90 0.6 S 11 15 6 8 1027.0 1027.9 0.0
30/06:00pm 5.0 1.4 2.7 85 1.0 SW 11 13 6 7 1026.9 1027.8 0.0
30/05:30pm 6.1 2.4 4.7 91 0.6 SSW 13 17 7 9 1026.7 1027.6 0.0
30/05:00pm 7.5 4.2 4.5 81 1.4 NW 11 13 6 7 1026.3 1027.1 0.0
30/04:30pm 9.2 5.5 4.6 73 2.2 W 13 17 7 9 1026.1 1026.9 0.0
30/04:00pm 10.5 6.0 4.0 64 3.0 NW 17 20 9 11 1026.2 1027.0 0.0
30/03:30pm 11.1 7.1 5.0 66 2.9 NW 15 24 8 13 1026.2 1027.0 0.0
30/03:00pm 10.8 6.4 4.7 66 2.9 WNW 17 22 9 12 1026.2 1027.0 0.0
30/02:30pm 10.9 5.9 4.4 64 3.1 NW 20 28 11 15 1026.3 1027.1 0.0
30/02:00pm 11.6 6.8 4.8 63 3.3 NW 19 26 10 14 1026.3 1027.1 0.0
30/01:30pm 11.6 6.5 4.1 60 3.6 NNW 20 30 11 16 1026.5 1027.4 0.0
30/01:00pm 13.2 8.2 4.6 56 4.1 NNW 20 30 11 16 1026.7 1027.6 0.0
30/12:30pm 12.9 8.1 4.6 57 4.0 N 19 26 10 14 1027.1 1028.0 0.0
30/12:00pm 12.7 7.3 4.4 57 4.0 NNW 22 28 12 15 1027.8 1028.7 0.0
30/11:30am 11.8 6.9 4.1 59 3.7 NW 19 28 10 15 1028.4 1029.3 0.0
30/11:00am 11.3 7.8 5.4 67 2.9 NNW 13 17 7 9 1028.6 1029.5 0.0
30/10:30am 8.7 5.7 6.0 83 1.3 N 11 13 6 7 1029.0 1029.9 0.0
30/10:00am 7.8 5.7 5.8 87 0.9 N 6 7 3 4 1029.0 1029.9 0.0
30/09:30am 6.2 4.4 5.2 93 0.5 NNW 4 6 2 3 1029.3 1030.3 0.0
30/09:00am 5.1 2.7 4.1 93 0.4 NNE 6 7 3 4 1029.1 1030.1 0.0
30/08:30am 3.6 0.7 2.6 93 0.4 NE 7 9 4 5 1029.0 1029.9 0.0
30/08:00am 1.2 -2.5 0.2 93 0.4 NE 9 9 5 5 1029.0 1029.9 0.0
30/07:30am 0.6 -2.6 -0.4 93 0.4 NE 6 6 3 3 1028.9 1029.8 0.0
30/07:00am 1.3 -1.8 0.3 93 0.4 NNE 6 9 3 5 1028.9 1029.8 0.0
30/06:30am 0.6 -2.6 -0.4 93 0.4 SSE 6 7 3 4 1028.7 1029.6 0.0
30/06:00am 0.8 -1.2 -0.2 93 0.4 CALM 0 9 0 5 1028.5 1029.4 0.0
30/05:30am 1.0 -2.1 0.0 93 0.4 N 6 7 3 4 1028.2 1029.2 0.0
30/05:00am 0.8 -2.5 -0.2 93 0.4 NNW 7 7 4 4 1028.2 1029.2 0.0
30/04:30am 1.7 -0.6 0.7 93 0.4 WNW 2 7 1 4 1028.2 1029.2 0.0
30/04:00am 1.4 -0.5 0.4 93 0.4 CALM 0 0 0 0 1028.1 1029.0 0.0
30/03:30am 2.1 0.3 1.1 93 0.4 CALM 0 0 0 0 1028.1 1029.0 0.0
30/03:22am 1.7 -0.2 0.7 93 0.4 CALM 0 0 0 0 1028.4 1029.3 0.0
30/03:06am 1.0 -2.1 0.0 93 0.4 NNE 6 6 3 3 1028.4 1029.3 0.0
30/03:00am 1.8 -1.2 0.8 93 0.4 NNE 6 7 3 4 1028.5 1029.4 0.0
30/02:30am 2.6 -0.3 1.6 93 0.4 N 6 7 3 4 1028.7 1029.6 0.0
30/02:00am 2.9 1.2 1.9 93 0.4 CALM 0 0 0 0 1028.8 1029.7 0.0
30/01:30am 3.3 0.3 2.3 93 0.4 WNW 7 9 4 5 1029.1 1030.1 0.0
30/01:00am 2.2 0.4 1.2 93 0.4 CALM 0 0 0 0 1029.1 1030.1 0.0
30/12:30am 0.7 -1.3 -0.4 92 0.4 CALM 0 0 0 0 1029.2 1030.2 0.0
30/12:00am 1.6 -0.3 0.6 93 0.4 CALM 0 0 0 0 1029.3 1030.3 0.0
 
Date/Time
EST
Temp
°C
App
Temp
°C
Dew
Point
Rel
Hum
%
Delta-T
°C
Wind Press
QNH
hPa
Press
MSL
hPa
Rain
since 9 am
mm
Dir
 
Spd
km/h
Gust
km/h
Spd
kts
Gust
kts
29/11:30pm 0.9 -1.1 -0.2 92 0.4 CALM 0 0 0 0 1029.4 1030.4 0.0
29/11:00pm 2.4 0.3 1.4 93 0.4 N 2 6 1 3 1029.7 1030.6 0.0
29/10:30pm 2.3 -0.6 1.3 93 0.4 N 6 7 3 4 1030.0 1031.0 0.0
29/10:00pm 2.6 -0.5 1.6 93 0.4 N 7 7 4 4 1030.2 1031.2 0.0
29/09:30pm 2.7 -0.3 1.7 93 0.4 N 7 7 4 4 1030.4 1031.4 0.0
29/09:00pm 2.9 0.0 1.7 92 0.5 N 6 7 3 4 1030.5 1031.5 0.0
29/08:30pm 3.5 0.5 2.0 90 0.6 N 7 7 4 4 1030.5 1031.5 0.0
29/08:00pm 3.7 0.7 1.7 87 0.8 N 7 9 4 5 1030.4 1031.4 0.0
29/07:30pm 3.5 -0.3 1.5 87 0.8 N 11 13 6 7 1030.4 1031.4 0.0
29/07:00pm 3.4 -0.9 0.8 83 1.0 N 13 15 7 8 1030.2 1031.2 0.0
29/06:30pm 4.5 -0.2 1.0 78 1.4 NNW 15 15 8 8 1030.2 1031.2 0.0
29/06:00pm 6.5 3.0 1.0 68 2.3 NNW 9 11 5 6 1030.2 1031.2 0.0
29/05:30pm 6.7 3.5 0.8 66 2.5 NNW 7 9 4 5 1030.0 1031.0 0.0
29/05:00pm 8.6 4.6 0.6 57 3.4 NNW 11 15 6 8 1029.8 1030.7 0.0
29/04:30pm 10.4 4.9 0.7 51 4.2 NW 19 22 10 12 1029.7 1030.6 0.0
29/04:00pm 11.7 7.4 1.1 48 4.7 NNW 13 19 7 10 1029.4 1030.4 0.0
29/03:30pm 12.1 8.4 2.6 52 4.4 N 11 15 6 8 1029.3 1030.3 0.0
29/03:00pm 12.1 7.6 2.3 51 4.5 NNE 15 20 8 11 1029.2 1030.2 0.0
29/02:30pm 11.9 7.4 2.4 52 4.3 N 15 20 8 11 1029.2 1030.2 0.0
29/02:00pm 12.0 7.1 2.2 51 4.4 N 17 24 9 13 1029.4 1030.4 0.0
29/01:30pm 12.2 7.2 1.5 48 4.8 NNE 17 24 9 13 1029.7 1030.6 0.0
29/01:00pm 12.1 6.9 3.3 55 4.1 NNE 20 26 11 14 1029.9 1030.8 0.0
29/12:30pm 11.4 6.4 3.4 58 3.7 NNE 19 26 10 14 1030.5 1031.5 0.0
29/12:00pm 11.1 6.2 4.1 62 3.3 NNE 19 26 10 14 1030.8 1031.7 0.0
29/11:30am 10.5 5.5 4.6 67 2.8 NE 20 26 11 14 1031.3 1032.3 0.0
29/11:00am 9.6 4.9 5.2 74 2.1 NE 19 26 10 14 1032.0 1033.0 0.0
29/10:30am 8.7 4.5 5.8 82 1.4 NE 17 22 9 12 1032.3 1033.3 0.0
29/10:00am 7.7 3.5 5.8 88 0.9 NE 17 24 9 13 1032.5 1033.5 0.0
29/09:30am 6.7 2.5 5.7 93 0.5 NE 17 20 9 11 1032.5 1033.5 0.0
29/09:02am 5.4 2.1 4.4 93 0.5 NE 11 15 6 8 1032.5 1033.5 0.0
29/09:00am 5.3 2.3 4.3 93 0.4 NE 9 15 5 8 1032.5 1033.5 0.2
29/08:53am 5.1 2.1 4.1 93 0.4 NE 9 13 5 7 1032.6 1033.6 0.2
29/08:30am 0.6 -2.6 -0.4 93 0.4 N 6 7 3 4 1032.5 1033.5 0.2
29/08:00am -1.1 -4.5 -2.1 93 0.3 NE 6 9 3 5 1032.4 1033.4 0.0
29/07:39am -1.4 -3.7 -2.4 93 0.3 CALM 0 0 0 0 1032.2 1033.2 0.0
29/07:30am -2.4 -4.8 -3.4 93 0.2 CALM 0 0 0 0 1032.3 1033.3 0.0
29/07:19am -1.9 -4.3 -2.9 93 0.3 CALM 0 4 0 2 1032.2 1033.2 0.0
29/07:00am -2.1 -4.5 -3.1 93 0.2 CALM 0 0 0 0 1032.0 1033.0 0.0
29/06:30am -2.2 -4.6 -3.2 93 0.2 CALM 0 0 0 0 1031.9 1032.9 0.0
29/06:01am -1.7 -4.0 -2.7 93 0.3 CALM 0 0 0 0 1031.6 1032.6 0.0
29/06:00am -1.8 -4.2 -2.8 93 0.3 CALM 0 0 0 0 1031.6 1032.6 0.0
29/05:30am -1.1 -4.5 -2.1 93 0.3 E 6 7 3 4 1031.6 1032.6 0.0
29/05:00am -1.3 -4.9 -2.3 93 0.3 ESE 7 9 4 5 1031.5 1032.5 0.0
29/04:30am 0.2 -1.9 -0.8 93 0.4 CALM 0 0 0 0 1031.4 1032.4 0.0
29/04:00am 1.1 -2.6 0.1 93 0.4 NE 9 11 5 6 1031.5 1032.5 0.0
29/03:55am 0.8 -3.3 -0.2 93 0.4 NE 11 13 6 7 1031.5 1032.5 0.0
29/03:30am 1.6 -2.0 0.6 93 0.4 NE 9 13 5 7 1031.5 1032.5 0.0
29/03:00am 0.6 -3.2 -0.4 93 0.4 NNE 9 13 5 7 1031.5 1032.5 0.0
29/02:30am 1.2 -3.2 0.2 93 0.4 NE 13 17 7 9 1031.5 1032.5 0.0
29/02:00am 2.0 -1.6 0.8 92 0.5 NNE 9 11 5 6 1031.4 1032.4 0.0
29/01:30am 0.6 -3.2 -0.5 92 0.4 NE 9 13 5 7 1031.5 1032.5 0.0
29/01:00am 0.3 -2.9 -0.8 92 0.4 NE 6 7 3 4 1031.5 1032.5 0.0
29/12:30am -0.1 -4.0 -1.5 90 0.5 NE 9 11 5 6 1031.5 1032.5 0.0
29/12:00am 1.0 -2.3 -0.1 92 0.4 NE 7 9 4 5 1031.9 1032.9 0.0
 
Date/Time
EST
Temp
°C
App
Temp
°C
Dew
Point
Rel
Hum
%
Delta-T
°C
Wind Press
QNH
hPa
Press
MSL
hPa
Rain
since 9 am
mm
Dir
 
Spd
km/h
Gust
km/h
Spd
kts
Gust
kts
28/11:30pm -1.3 -5.0 -3.2 87 0.6 NE 7 9 4 5 1031.9 1032.9 0.0
28/11:00pm 0.8 -2.6 -1.8 83 1.0 NNE 6 9 3 5 1031.9 1032.9 0.0
28/10:30pm -0.1 -3.1 -1.5 90 0.5 N 4 6 2 3 1032.0 1033.0 0.0
28/10:00pm 0.3 -2.0 -2.1 84 0.9 CALM 0 0 0 0 1031.9 1032.9 0.0
28/09:30pm -0.1 -2.3 -1.8 88 0.6 CALM 0 0 0 0 1032.0 1033.0 0.0
28/09:00pm -0.1 -2.4 -2.0 87 0.7 CALM 0 0 0 0 1031.9 1032.9 0.0
28/08:30pm 0.1 -2.1 -1.3 90 0.5 CALM 0 0 0 0 1031.7 1032.7 0.0
28/08:00pm 1.1 -0.9 -0.2 91 0.5 CALM 0 0 0 0 1031.7 1032.7 0.0
28/07:30pm 0.6 -2.3 -1.2 88 0.7 S 4 6 2 3 1031.6 1032.6 0.0
28/07:00pm 1.4 -2.0 -0.7 86 0.8 S 7 9 4 5 1031.3 1032.3 0.0
28/06:30pm 2.7 -0.6 0.1 83 1.0 SSE 7 9 4 5 1031.1 1032.1 0.0
28/06:00pm 3.3 -0.5 -0.5 76 1.5 S 9 11 5 6 1030.9 1031.8 0.0
28/05:30pm 5.1 1.4 -0.1 69 2.1 S 9 13 5 7 1030.8 1031.7 0.0
28/05:00pm 7.2 3.5 0.2 61 2.9 SSE 9 11 5 6 1030.8 1031.7 0.0
28/04:30pm 9.4 5.9 1.1 56 3.6 SSE 9 11 5 6 1030.9 1031.8 0.0
28/04:00pm 10.8 7.0 1.6 53 4.1 S 11 13 6 7 1030.8 1031.7 0.0
28/03:30pm 11.5 7.7 1.7 51 4.4 SSW 11 13 6 7 1030.8 1031.7 0.0
28/03:00pm 12.2 9.3 1.5 48 4.8 S 6 9 3 5 1030.8 1031.7 0.0
28/02:30pm 12.1 8.5 0.8 46 5.0 SSW 9 11 5 6 1030.7 1031.6 0.0
28/02:00pm 11.9 8.3 0.4 45 5.0 S 9 13 5 7 1030.7 1031.6 0.0
28/01:30pm 12.2 8.6 0.6 45 5.1 SW 9 15 5 8 1030.8 1031.7 0.0
28/01:00pm 12.4 7.7 -1.5 38 5.8 S 13 19 7 10 1031.0 1032.0 0.0
28/12:30pm 13.5 10.2 -1.6 35 6.4 NNW 6 13 3 7 1031.2 1032.2 0.0
28/12:00pm 12.7 8.7 -2.0 36 6.1 NNW 9 13 5 7 1031.5 1032.5 0.0

Other Formats:

Comma delimited format used in spreadsheet applications
http://www.bom.gov.au/fwo/IDN60801/IDN60801.95726.axf

JavaScript Object Notation format (JSON) in row-major order
http://www.bom.gov.au/fwo/IDN60801/IDN60801.95726.json